Virtual United States Air Force

 METAR AND TAF INFORMATION
METAR FOR KALM
ADDS - METARS form results

(1102 UTC 17 January 2018)
Data provider http://aviationweather.gov/adds/metars/
 
METAR text: KALM 171055Z AUTO 02005KT 10SM CLR M08/M18 A3046 RMK AO2
Conditions at: KALM (ALAMOGORDO WHITE, NM, US) observed 1055 UTC 17 January 2018
Temperature: -8.0°C (18°F)
Dewpoint: -18.0°C (-0°F) [RH = 44%]
Pressure (altimeter): 30.46 inches Hg (1031.6 mb)
Winds: from the NNE (20 degrees) at 6 MPH (5 knots; 2.6 m/s)
Visibility: 10 or more miles (16+ km)
Ceiling: at least 12,000 feet AGL
Clouds: sky clear below 12,000 feet AGL
Weather: automated observation with no human augmentation;
there may or may not be significant weather present at this time

METAR text: KALM 171035Z AUTO 34006KT 10SM CLR M07/M17 A3045 RMK AO2
Conditions at: KALM (ALAMOGORDO WHITE, NM, US) observed 1035 UTC 17 January 2018
Temperature: -7.0°C (19°F)
Dewpoint: -17.0°C (1°F) [RH = 45%]
Pressure (altimeter): 30.45 inches Hg (1031.2 mb)
Winds: from the NNW (340 degrees) at 7 MPH (6 knots; 3.1 m/s)
Visibility: 10 or more miles (16+ km)
Ceiling: at least 12,000 feet AGL
Clouds: sky clear below 12,000 feet AGL
Weather: automated observation with no human augmentation;
there may or may not be significant weather present at this time

METAR text: KALM 171015Z AUTO 36007KT 10SM CLR M06/M18 A3046 RMK AO2
Conditions at: KALM (ALAMOGORDO WHITE, NM, US) observed 1015 UTC 17 January 2018
Temperature: -6.0°C (21°F)
Dewpoint: -18.0°C (-0°F) [RH = 38%]
Pressure (altimeter): 30.46 inches Hg (1031.6 mb)
Winds: from the N (360 degrees) at 8 MPH (7 knots; 3.6 m/s)
Visibility: 10 or more miles (16+ km)
Ceiling: at least 12,000 feet AGL
Clouds: sky clear below 12,000 feet AGL
Weather: automated observation with no human augmentation;
there may or may not be significant weather present at this time

 AIRPORT MAP

 RUNWAY INFORMATION
Runway 03 Runway length 7006 ft Runway width 150 ft
Runway elevation 4144 ft Runway displaced threshold 0 ft Runway heading 46
Runway 21 Runway length 7006 ft Runway width 150 ft
Runway elevation 4200 ft Runway displaced threshold 0 ft Runway heading 226
Runway 16 Runway length 3512 ft Runway width 200 ft
Runway elevation 4200 ft Runway displaced threshold 0 ft Runway heading 173
Runway 34 Runway length 3512 ft Runway width 200 ft
Runway elevation 4200 ft Runway displaced threshold 0 ft Runway heading 353

 AIRPORT FREQUENCIES
Type APP Name HOLLOMAN A Frequency 120.6 MHZ
Type AWOS Name AWOS 3 Frequency 127.825 MHZ
Type DEP Name HOLLOMAN D Frequency 128.1 MHZ
Type RDO Name ALBUQUERQU Frequency 122.15 MHZ
Type UNIC Name CTAF/UNICO Frequency 122.8 MHZ

 AIRPORT NEAR NAVIGATION AIDS



Powered by Virtual Airlines Manager [v2.6.2]